sensor_id;sensor_type;location;lat;lon;timestamp;temperature;humidity
52187;DHT22;38161;53.020;6.598;2022-08-06T00:00:24;14.40;99.90
52187;DHT22;38161;53.020;6.598;2022-08-06T00:02:50;14.30;99.90
52187;DHT22;38161;53.020;6.598;2022-08-06T00:05:15;14.30;99.90
52187;DHT22;38161;53.020;6.598;2022-08-06T00:07:41;14.30;99.90
52187;DHT22;38161;53.020;6.598;2022-08-06T00:10:07;14.20;99.90
52187;DHT22;38161;53.020;6.598;2022-08-06T00:12:33;14.20;99.90
52187;DHT22;38161;53.020;6.598;2022-08-06T00:15:00;14.20;99.90
52187;DHT22;38161;53.020;6.598;2022-08-06T00:17:26;14.20;99.90
52187;DHT22;38161;53.020;6.598;2022-08-06T00:19:52;14.10;99.90
52187;DHT22;38161;53.020;6.598;2022-08-06T00:22:18;14.10;99.90
52187;DHT22;38161;53.020;6.598;2022-08-06T00:24:43;14.10;99.90
52187;DHT22;38161;53.020;6.598;2022-08-06T00:27:09;14.10;99.90
52187;DHT22;38161;53.020;6.598;2022-08-06T00:29:35;14.10;99.90
52187;DHT22;38161;53.020;6.598;2022-08-06T00:32:00;14.10;99.90
52187;DHT22;38161;53.020;6.598;2022-08-06T00:34:26;14.00;99.90
52187;DHT22;38161;53.020;6.598;2022-08-06T00:36:52;14.00;99.90
52187;DHT22;38161;53.020;6.598;2022-08-06T00:39:17;14.00;99.90
52187;DHT22;38161;53.020;6.598;2022-08-06T00:41:43;14.00;99.90
52187;DHT22;38161;53.020;6.598;2022-08-06T00:44:09;14.00;99.90
52187;DHT22;38161;53.020;6.598;2022-08-06T00:46:35;14.00;99.90
52187;DHT22;38161;53.020;6.598;2022-08-06T00:49:01;14.00;99.90
52187;DHT22;38161;53.020;6.598;2022-08-06T00:51:26;13.90;99.90
52187;DHT22;38161;53.020;6.598;2022-08-06T00:53:52;13.90;99.90
52187;DHT22;38161;53.020;6.598;2022-08-06T00:56:19;13.90;99.90
52187;DHT22;38161;53.020;6.598;2022-08-06T00:58:44;13.80;99.90
52187;DHT22;38161;53.020;6.598;2022-08-06T01:01:11;13.70;99.90
52187;DHT22;38161;53.020;6.598;2022-08-06T01:03:37;13.70;99.90
52187;DHT22;38161;53.020;6.598;2022-08-06T01:06:03;13.70;99.90
52187;DHT22;38161;53.020;6.598;2022-08-06T01:08:29;13.70;99.90
52187;DHT22;38161;53.020;6.598;2022-08-06T01:10:54;13.70;99.90
52187;DHT22;38161;53.020;6.598;2022-08-06T01:13:20;13.70;99.90
52187;DHT22;38161;53.020;6.598;2022-08-06T01:15:51;13.60;99.90
52187;DHT22;38161;53.020;6.598;2022-08-06T01:18:23;13.60;99.90
52187;DHT22;38161;53.020;6.598;2022-08-06T01:31:54;13.50;99.90
52187;DHT22;38161;53.020;6.598;2022-08-06T01:34:25;13.50;99.90
52187;DHT22;38161;53.020;6.598;2022-08-06T01:37:01;13.50;99.90
52187;DHT22;38161;53.020;6.598;2022-08-06T01:39:30;13.40;99.90
52187;DHT22;38161;53.020;6.598;2022-08-06T01:41:58;13.40;99.90
52187;DHT22;38161;53.020;6.598;2022-08-06T01:44:30;13.30;99.90
52187;DHT22;38161;53.020;6.598;2022-08-06T01:47:01;13.30;99.90
52187;DHT22;38161;53.020;6.598;2022-08-06T01:49:29;13.30;99.90
52187;DHT22;38161;53.020;6.598;2022-08-06T01:51:58;13.20;99.90
52187;DHT22;38161;53.020;6.598;2022-08-06T01:54:26;13.20;99.90
52187;DHT22;38161;53.020;6.598;2022-08-06T01:56:55;13.10;99.90
52187;DHT22;38161;53.020;6.598;2022-08-06T01:59:29;13.10;99.90
52187;DHT22;38161;53.020;6.598;2022-08-06T02:01:56;13.00;99.90
52187;DHT22;38161;53.020;6.598;2022-08-06T02:04:26;12.90;99.90
52187;DHT22;38161;53.020;6.598;2022-08-06T02:06:53;12.90;99.90
52187;DHT22;38161;53.020;6.598;2022-08-06T02:09:22;12.20;99.90
52187;DHT22;38161;53.020;6.598;2022-08-06T02:12:26;12.80;99.90
52187;DHT22;38161;53.020;6.598;2022-08-06T02:14:58;12.70;99.90
52187;DHT22;38161;53.020;6.598;2022-08-06T02:17:28;12.70;99.90
52187;DHT22;38161;53.020;6.598;2022-08-06T02:19:55;12.70;99.90
52187;DHT22;38161;53.020;6.598;2022-08-06T02:22:28;12.70;99.90
52187;DHT22;38161;53.020;6.598;2022-08-06T02:24:54;12.60;99.90
52187;DHT22;38161;53.020;6.598;2022-08-06T02:27:22;12.70;99.90
52187;DHT22;38161;53.020;6.598;2022-08-06T02:29:49;12.60;99.90
52187;DHT22;38161;53.020;6.598;2022-08-06T02:32:16;12.60;99.90
52187;DHT22;38161;53.020;6.598;2022-08-06T02:34:43;12.60;99.90
52187;DHT22;38161;53.020;6.598;2022-08-06T02:37:22;12.60;99.90
52187;DHT22;38161;53.020;6.598;2022-08-06T02:40:02;12.60;99.90
52187;DHT22;38161;53.020;6.598;2022-08-06T02:42:33;12.60;99.90
52187;DHT22;38161;53.020;6.598;2022-08-06T02:50:14;12.50;99.90
52187;DHT22;38161;53.020;6.598;2022-08-06T02:52:44;12.40;99.90
52187;DHT22;38161;53.020;6.598;2022-08-06T02:55:18;12.40;99.90
52187;DHT22;38161;53.020;6.598;2022-08-06T02:57:52;12.30;99.90
52187;DHT22;38161;53.020;6.598;2022-08-06T03:00:19;12.30;99.90
52187;DHT22;38161;53.020;6.598;2022-08-06T03:02:47;12.30;99.90
52187;DHT22;38161;53.020;6.598;2022-08-06T03:05:17;12.30;99.90
52187;DHT22;38161;53.020;6.598;2022-08-06T03:07:44;12.20;99.90
52187;DHT22;38161;53.020;6.598;2022-08-06T03:10:13;12.20;99.90
52187;DHT22;38161;53.020;6.598;2022-08-06T03:12:40;12.10;99.90
52187;DHT22;38161;53.020;6.598;2022-08-06T03:15:09;12.10;99.90
52187;DHT22;38161;53.020;6.598;2022-08-06T03:17:37;12.10;99.90
52187;DHT22;38161;53.020;6.598;2022-08-06T03:20:05;12.10;99.90
52187;DHT22;38161;53.020;6.598;2022-08-06T03:22:32;12.10;99.90
52187;DHT22;38161;53.020;6.598;2022-08-06T03:25:00;12.00;99.90
52187;DHT22;38161;53.020;6.598;2022-08-06T03:27:26;12.00;99.90
52187;DHT22;38161;53.020;6.598;2022-08-06T03:29:54;12.00;99.90
52187;DHT22;38161;53.020;6.598;2022-08-06T03:32:21;12.00;99.90
52187;DHT22;38161;53.020;6.598;2022-08-06T03:34:47;12.00;99.90
52187;DHT22;38161;53.020;6.598;2022-08-06T03:37:16;11.90;99.90
52187;DHT22;38161;53.020;6.598;2022-08-06T03:39:43;11.90;99.90
52187;DHT22;38161;53.020;6.598;2022-08-06T03:42:09;11.90;99.90
52187;DHT22;38161;53.020;6.598;2022-08-06T03:44:36;11.90;99.90
52187;DHT22;38161;53.020;6.598;2022-08-06T03:47:09;11.90;99.90
52187;DHT22;38161;53.020;6.598;2022-08-06T03:49:40;11.80;99.90
52187;DHT22;38161;53.020;6.598;2022-08-06T03:52:09;11.70;99.90
52187;DHT22;38161;53.020;6.598;2022-08-06T03:54:40;11.70;99.90
52187;DHT22;38161;53.020;6.598;2022-08-06T03:57:09;11.70;99.90
52187;DHT22;38161;53.020;6.598;2022-08-06T03:59:38;11.70;99.90
52187;DHT22;38161;53.020;6.598;2022-08-06T04:02:05;11.70;99.90
52187;DHT22;38161;53.020;6.598;2022-08-06T04:04:32;11.60;99.90
52187;DHT22;38161;53.020;6.598;2022-08-06T04:07:00;11.60;99.90
52187;DHT22;38161;53.020;6.598;2022-08-06T04:09:27;11.60;99.90
52187;DHT22;38161;53.020;6.598;2022-08-06T04:11:55;11.60;99.90
52187;DHT22;38161;53.020;6.598;2022-08-06T04:14:21;11.50;99.90
52187;DHT22;38161;53.020;6.598;2022-08-06T04:16:48;11.50;99.90
52187;DHT22;38161;53.020;6.598;2022-08-06T04:19:15;11.50;99.90
52187;DHT22;38161;53.020;6.598;2022-08-06T04:21:44;11.50;99.90
52187;DHT22;38161;53.020;6.598;2022-08-06T04:24:11;11.50;99.90
52187;DHT22;38161;53.020;6.598;2022-08-06T04:26:38;11.50;99.90
52187;DHT22;38161;53.020;6.598;2022-08-06T04:29:07;11.50;99.90
52187;DHT22;38161;53.020;6.598;2022-08-06T04:31:34;11.50;99.90
52187;DHT22;38161;53.020;6.598;2022-08-06T04:34:01;11.50;99.90
52187;DHT22;38161;53.020;6.598;2022-08-06T04:36:27;11.50;99.90
52187;DHT22;38161;53.020;6.598;2022-08-06T04:38:54;11.50;99.90
52187;DHT22;38161;53.020;6.598;2022-08-06T04:41:20;11.50;99.90
52187;DHT22;38161;53.020;6.598;2022-08-06T04:43:47;11.50;99.90
52187;DHT22;38161;53.020;6.598;2022-08-06T04:46:12;11.50;99.90
52187;DHT22;38161;53.020;6.598;2022-08-06T04:48:38;11.50;99.90
52187;DHT22;38161;53.020;6.598;2022-08-06T04:51:05;11.50;99.90
52187;DHT22;38161;53.020;6.598;2022-08-06T04:53:41;11.60;99.90
52187;DHT22;38161;53.020;6.598;2022-08-06T04:56:07;11.60;99.90
52187;DHT22;38161;53.020;6.598;2022-08-06T04:58:34;11.60;99.90
52187;DHT22;38161;53.020;6.598;2022-08-06T05:01:00;11.70;99.90
52187;DHT22;38161;53.020;6.598;2022-08-06T05:03:27;11.70;99.90
52187;DHT22;38161;53.020;6.598;2022-08-06T05:08:44;11.70;99.90
52187;DHT22;38161;53.020;6.598;2022-08-06T05:11:15;11.70;99.90
52187;DHT22;38161;53.020;6.598;2022-08-06T05:13:44;11.80;99.90
52187;DHT22;38161;53.020;6.598;2022-08-06T05:16:13;11.80;99.90
52187;DHT22;38161;53.020;6.598;2022-08-06T05:18:53;11.80;99.90
52187;DHT22;38161;53.020;6.598;2022-08-06T05:21:28;11.80;99.90
52187;DHT22;38161;53.020;6.598;2022-08-06T05:23:56;11.80;99.90
52187;DHT22;38161;53.020;6.598;2022-08-06T05:26:22;11.90;99.90
52187;DHT22;38161;53.020;6.598;2022-08-06T05:28:48;12.00;99.90
52187;DHT22;38161;53.020;6.598;2022-08-06T05:31:14;12.00;99.90
52187;DHT22;38161;53.020;6.598;2022-08-06T05:33:41;12.10;99.90
52187;DHT22;38161;53.020;6.598;2022-08-06T05:36:11;12.20;99.90
52187;DHT22;38161;53.020;6.598;2022-08-06T05:38:39;12.20;99.90
52187;DHT22;38161;53.020;6.598;2022-08-06T05:41:07;12.30;99.90
52187;DHT22;38161;53.020;6.598;2022-08-06T05:43:34;12.40;99.90
52187;DHT22;38161;53.020;6.598;2022-08-06T05:46:07;12.50;99.90
52187;DHT22;38161;53.020;6.598;2022-08-06T05:48:37;12.60;99.90
52187;DHT22;38161;53.020;6.598;2022-08-06T05:51:09;12.60;99.90
52187;DHT22;38161;53.020;6.598;2022-08-06T05:53:48;12.70;99.90
52187;DHT22;38161;53.020;6.598;2022-08-06T05:56:23;12.80;99.90
52187;DHT22;38161;53.020;6.598;2022-08-06T05:58:58;12.90;99.90
52187;DHT22;38161;53.020;6.598;2022-08-06T06:01:25;13.00;99.90
52187;DHT22;38161;53.020;6.598;2022-08-06T06:03:52;13.10;99.90
52187;DHT22;38161;53.020;6.598;2022-08-06T06:06:22;13.20;99.90
52187;DHT22;38161;53.020;6.598;2022-08-06T06:08:48;13.40;99.90
52187;DHT22;38161;53.020;6.598;2022-08-06T06:11:14;13.50;99.90
52187;DHT22;38161;53.020;6.598;2022-08-06T06:13:42;13.60;99.90
52187;DHT22;38161;53.020;6.598;2022-08-06T06:16:26;13.70;99.90
52187;DHT22;38161;53.020;6.598;2022-08-06T06:24:19;14.00;99.90
52187;DHT22;38161;53.020;6.598;2022-08-06T06:26:54;14.10;99.90
52187;DHT22;38161;53.020;6.598;2022-08-06T06:29:55;14.20;99.90
52187;DHT22;38161;53.020;6.598;2022-08-06T06:35:35;14.40;99.90
52187;DHT22;38161;53.020;6.598;2022-08-06T06:41:14;14.70;99.90
52187;DHT22;38161;53.020;6.598;2022-08-06T06:46:48;14.90;99.90
52187;DHT22;38161;53.020;6.598;2022-08-06T06:52:25;15.10;99.90
52187;DHT22;38161;53.020;6.598;2022-08-06T06:57:43;15.40;99.90
52187;DHT22;38161;53.020;6.598;2022-08-06T07:00:11;15.50;99.90
52187;DHT22;38161;53.020;6.598;2022-08-06T07:02:38;15.60;99.90
52187;DHT22;38161;53.020;6.598;2022-08-06T07:05:08;15.70;99.90
52187;DHT22;38161;53.020;6.598;2022-08-06T07:07:38;15.80;99.90
52187;DHT22;38161;53.020;6.598;2022-08-06T07:10:07;15.90;99.90
52187;DHT22;38161;53.020;6.598;2022-08-06T07:12:34;16.00;99.90
52187;DHT22;38161;53.020;6.598;2022-08-06T07:15:02;16.10;99.90
52187;DHT22;38161;53.020;6.598;2022-08-06T07:17:32;16.20;99.90
52187;DHT22;38161;53.020;6.598;2022-08-06T07:20:01;16.40;99.90
52187;DHT22;38161;53.020;6.598;2022-08-06T07:22:28;16.50;99.90
52187;DHT22;38161;53.020;6.598;2022-08-06T07:24:56;16.60;99.90
52187;DHT22;38161;53.020;6.598;2022-08-06T07:27:25;16.70;99.90
52187;DHT22;38161;53.020;6.598;2022-08-06T07:29:53;16.80;99.90
52187;DHT22;38161;53.020;6.598;2022-08-06T07:32:20;16.90;99.90
52187;DHT22;38161;53.020;6.598;2022-08-06T07:34:46;17.00;99.90
52187;DHT22;38161;53.020;6.598;2022-08-06T07:37:13;17.10;99.90
52187;DHT22;38161;53.020;6.598;2022-08-06T07:39:42;17.20;99.90
52187;DHT22;38161;53.020;6.598;2022-08-06T07:42:12;17.30;99.90
52187;DHT22;38161;53.020;6.598;2022-08-06T07:44:43;17.40;99.90
52187;DHT22;38161;53.020;6.598;2022-08-06T07:47:13;17.50;99.90
52187;DHT22;38161;53.020;6.598;2022-08-06T07:49:43;17.50;99.90
52187;DHT22;38161;53.020;6.598;2022-08-06T07:52:13;17.60;99.90
52187;DHT22;38161;53.020;6.598;2022-08-06T07:54:40;17.60;99.90
52187;DHT22;38161;53.020;6.598;2022-08-06T07:57:06;17.60;99.90
52187;DHT22;38161;53.020;6.598;2022-08-06T07:59:32;17.50;99.90
52187;DHT22;38161;53.020;6.598;2022-08-06T08:02:03;17.50;99.90
52187;DHT22;38161;53.020;6.598;2022-08-06T08:04:30;17.70;99.90
52187;DHT22;38161;53.020;6.598;2022-08-06T08:07:15;17.70;99.90
52187;DHT22;38161;53.020;6.598;2022-08-06T08:09:43;17.90;99.90
52187;DHT22;38161;53.020;6.598;2022-08-06T08:12:11;18.00;99.90
52187;DHT22;38161;53.020;6.598;2022-08-06T08:14:37;18.10;99.90
52187;DHT22;38161;53.020;6.598;2022-08-06T08:17:04;18.20;99.90
52187;DHT22;38161;53.020;6.598;2022-08-06T08:19:34;18.30;99.90
52187;DHT22;38161;53.020;6.598;2022-08-06T08:22:06;18.50;99.90
52187;DHT22;38161;53.020;6.598;2022-08-06T08:24:33;18.60;99.90
52187;DHT22;38161;53.020;6.598;2022-08-06T08:27:00;18.70;99.90
52187;DHT22;38161;53.020;6.598;2022-08-06T08:29:26;18.70;99.90
52187;DHT22;38161;53.020;6.598;2022-08-06T08:31:52;18.70;99.90
52187;DHT22;38161;53.020;6.598;2022-08-06T08:34:18;18.70;99.90
52187;DHT22;38161;53.020;6.598;2022-08-06T08:36:44;18.70;99.90
52187;DHT22;38161;53.020;6.598;2022-08-06T08:39:10;18.80;99.90
52187;DHT22;38161;53.020;6.598;2022-08-06T08:41:44;18.70;99.90
52187;DHT22;38161;53.020;6.598;2022-08-06T08:44:10;18.60;99.90
52187;DHT22;38161;53.020;6.598;2022-08-06T08:46:41;18.60;99.90
52187;DHT22;38161;53.020;6.598;2022-08-06T08:49:16;18.50;99.90
52187;DHT22;38161;53.020;6.598;2022-08-06T08:51:45;18.40;99.90
52187;DHT22;38161;53.020;6.598;2022-08-06T08:54:13;18.30;99.90
52187;DHT22;38161;53.020;6.598;2022-08-06T08:56:39;18.40;99.90
52187;DHT22;38161;53.020;6.598;2022-08-06T08:59:05;18.60;99.90
52187;DHT22;38161;53.020;6.598;2022-08-06T09:01:32;18.80;99.90
52187;DHT22;38161;53.020;6.598;2022-08-06T09:04:02;19.00;99.90
52187;DHT22;38161;53.020;6.598;2022-08-06T09:06:28;19.20;99.90
52187;DHT22;38161;53.020;6.598;2022-08-06T09:08:55;19.40;99.90
52187;DHT22;38161;53.020;6.598;2022-08-06T09:11:22;19.60;99.90
52187;DHT22;38161;53.020;6.598;2022-08-06T09:13:48;19.70;99.90
52187;DHT22;38161;53.020;6.598;2022-08-06T09:16:14;19.80;99.90
52187;DHT22;38161;53.020;6.598;2022-08-06T09:18:39;19.90;99.90
52187;DHT22;38161;53.020;6.598;2022-08-06T09:21:05;20.10;99.90
52187;DHT22;38161;53.020;6.598;2022-08-06T09:23:31;19.90;99.90
52187;DHT22;38161;53.020;6.598;2022-08-06T09:25:57;20.20;99.90
52187;DHT22;38161;53.020;6.598;2022-08-06T09:31:33;20.20;99.90
52187;DHT22;38161;53.020;6.598;2022-08-06T09:33:55;20.20;99.90
52187;DHT22;38161;53.020;6.598;2022-08-06T09:36:21;20.20;99.90
52187;DHT22;38161;53.020;6.598;2022-08-06T09:38:54;20.10;99.90
52187;DHT22;38161;53.020;6.598;2022-08-06T09:41:22;20.00;99.90
52187;DHT22;38161;53.020;6.598;2022-08-06T09:43:51;19.90;99.90
52187;DHT22;38161;53.020;6.598;2022-08-06T09:46:18;19.70;99.90
52187;DHT22;38161;53.020;6.598;2022-08-06T09:48:57;19.70;99.90
52187;DHT22;38161;53.020;6.598;2022-08-06T09:51:24;19.60;99.90
52187;DHT22;38161;53.020;6.598;2022-08-06T09:53:57;19.50;99.90
52187;DHT22;38161;53.020;6.598;2022-08-06T09:56:25;19.50;99.90
52187;DHT22;38161;53.020;6.598;2022-08-06T09:59:00;19.40;99.90
52187;DHT22;38161;53.020;6.598;2022-08-06T10:01:27;19.40;99.90
52187;DHT22;38161;53.020;6.598;2022-08-06T10:03:56;19.40;99.90
52187;DHT22;38161;53.020;6.598;2022-08-06T10:06:22;19.30;99.90
52187;DHT22;38161;53.020;6.598;2022-08-06T10:08:49;19.40;99.90
52187;DHT22;38161;53.020;6.598;2022-08-06T10:11:16;19.40;99.90
52187;DHT22;38161;53.020;6.598;2022-08-06T10:13:56;19.50;99.90
52187;DHT22;38161;53.020;6.598;2022-08-06T10:16:22;19.60;99.90
52187;DHT22;38161;53.020;6.598;2022-08-06T10:18:56;19.80;99.90
52187;DHT22;38161;53.020;6.598;2022-08-06T10:21:25;20.00;99.90
52187;DHT22;38161;53.020;6.598;2022-08-06T10:23:54;20.30;99.90
52187;DHT22;38161;53.020;6.598;2022-08-06T10:26:31;20.40;99.90
52187;DHT22;38161;53.020;6.598;2022-08-06T10:29:02;20.80;99.90
52187;DHT22;38161;53.020;6.598;2022-08-06T10:31:29;21.00;99.90
52187;DHT22;38161;53.020;6.598;2022-08-06T10:34:06;21.20;99.90
52187;DHT22;38161;53.020;6.598;2022-08-06T10:36:44;21.20;99.90
52187;DHT22;38161;53.020;6.598;2022-08-06T10:39:13;21.20;99.90
52187;DHT22;38161;53.020;6.598;2022-08-06T10:41:40;21.00;99.90
52187;DHT22;38161;53.020;6.598;2022-08-06T10:44:07;20.90;99.90
52187;DHT22;38161;53.020;6.598;2022-08-06T10:46:34;20.80;99.90
52187;DHT22;38161;53.020;6.598;2022-08-06T10:49:01;20.60;99.90
52187;DHT22;38161;53.020;6.598;2022-08-06T10:51:27;20.50;99.90
52187;DHT22;38161;53.020;6.598;2022-08-06T10:53:54;20.40;99.90
52187;DHT22;38161;53.020;6.598;2022-08-06T10:56:20;20.30;99.90
52187;DHT22;38161;53.020;6.598;2022-08-06T10:58:46;20.30;99.90
52187;DHT22;38161;53.020;6.598;2022-08-06T11:01:43;20.30;99.90
52187;DHT22;38161;53.020;6.598;2022-08-06T11:04:50;20.20;99.90
52187;DHT22;38161;53.020;6.598;2022-08-06T11:08:00;20.20;99.90
52187;DHT22;38161;53.020;6.598;2022-08-06T11:15:43;20.20;99.90
52187;DHT22;38161;53.020;6.598;2022-08-06T11:18:11;20.30;99.90
52187;DHT22;38161;53.020;6.598;2022-08-06T11:20:42;20.40;99.90
52187;DHT22;38161;53.020;6.598;2022-08-06T11:25:44;20.40;99.90
52187;DHT22;38161;53.020;6.598;2022-08-06T11:28:12;20.40;99.90
52187;DHT22;38161;53.020;6.598;2022-08-06T11:30:42;20.40;99.90
52187;DHT22;38161;53.020;6.598;2022-08-06T11:33:11;20.40;99.90
52187;DHT22;38161;53.020;6.598;2022-08-06T11:35:38;20.50;99.90
52187;DHT22;38161;53.020;6.598;2022-08-06T11:38:06;20.70;99.90
52187;DHT22;38161;53.020;6.598;2022-08-06T11:40:58;20.90;99.90
52187;DHT22;38161;53.020;6.598;2022-08-06T11:46:28;21.30;99.90
52187;DHT22;38161;53.020;6.598;2022-08-06T11:54:12;21.60;99.90
52187;DHT22;38161;53.020;6.598;2022-08-06T11:59:29;21.50;99.90
52187;DHT22;38161;53.020;6.598;2022-08-06T12:01:55;21.40;99.90
52187;DHT22;38161;53.020;6.598;2022-08-06T12:07:21;21.30;99.90
52187;DHT22;38161;53.020;6.598;2022-08-06T12:14:51;21.00;99.90
52187;DHT22;38161;53.020;6.598;2022-08-06T12:17:18;21.00;99.90
52187;DHT22;38161;53.020;6.598;2022-08-06T12:19:46;21.00;99.90
52187;DHT22;38161;53.020;6.598;2022-08-06T12:22:13;21.00;99.90
52187;DHT22;38161;53.020;6.598;2022-08-06T12:24:52;21.00;99.90
52187;DHT22;38161;53.020;6.598;2022-08-06T12:27:21;21.00;99.90
52187;DHT22;38161;53.020;6.598;2022-08-06T12:29:47;21.00;99.90
52187;DHT22;38161;53.020;6.598;2022-08-06T12:34:46;21.00;99.90
52187;DHT22;38161;53.020;6.598;2022-08-06T12:37:11;21.10;99.90
52187;DHT22;38161;53.020;6.598;2022-08-06T12:39:41;21.10;99.90
52187;DHT22;38161;53.020;6.598;2022-08-06T12:42:26;21.30;99.90
52187;DHT22;38161;53.020;6.598;2022-08-06T12:44:52;21.40;99.90
52187;DHT22;38161;53.020;6.598;2022-08-06T12:47:19;21.60;99.90
52187;DHT22;38161;53.020;6.598;2022-08-06T12:49:44;21.80;99.90
52187;DHT22;38161;53.020;6.598;2022-08-06T12:52:14;21.80;99.90
52187;DHT22;38161;53.020;6.598;2022-08-06T12:54:43;21.70;99.90
52187;DHT22;38161;53.020;6.598;2022-08-06T12:57:26;21.70;99.90
52187;DHT22;38161;53.020;6.598;2022-08-06T12:59:53;21.60;99.90
52187;DHT22;38161;53.020;6.598;2022-08-06T13:02:21;21.40;99.90
52187;DHT22;38161;53.020;6.598;2022-08-06T13:04:52;21.30;99.90
52187;DHT22;38161;53.020;6.598;2022-08-06T13:07:19;21.30;99.90
52187;DHT22;38161;53.020;6.598;2022-08-06T13:09:46;21.20;99.90
52187;DHT22;38161;53.020;6.598;2022-08-06T13:12:17;21.10;99.90
52187;DHT22;38161;53.020;6.598;2022-08-06T13:14:52;21.10;99.90
52187;DHT22;38161;53.020;6.598;2022-08-06T13:17:19;21.10;99.90
52187;DHT22;38161;53.020;6.598;2022-08-06T13:20:05;21.10;99.90
52187;DHT22;38161;53.020;6.598;2022-08-06T13:22:31;21.20;99.90
52187;DHT22;38161;53.020;6.598;2022-08-06T13:25:14;21.40;99.90
52187;DHT22;38161;53.020;6.598;2022-08-06T13:27:45;21.50;99.90
52187;DHT22;38161;53.020;6.598;2022-08-06T13:30:11;21.70;99.90
52187;DHT22;38161;53.020;6.598;2022-08-06T13:32:37;21.80;99.90
52187;DHT22;38161;53.020;6.598;2022-08-06T13:35:08;21.90;99.90
52187;DHT22;38161;53.020;6.598;2022-08-06T13:40:11;22.10;99.10
52187;DHT22;38161;53.020;6.598;2022-08-06T13:42:53;22.10;98.50
52187;DHT22;38161;53.020;6.598;2022-08-06T13:45:22;22.20;98.00
52187;DHT22;38161;53.020;6.598;2022-08-06T13:47:48;22.20;98.10
52187;DHT22;38161;53.020;6.598;2022-08-06T13:50:20;22.20;98.20
52187;DHT22;38161;53.020;6.598;2022-08-06T13:52:47;22.10;97.80
52187;DHT22;38161;53.020;6.598;2022-08-06T13:55:13;22.00;97.80
52187;DHT22;38161;53.020;6.598;2022-08-06T13:57:46;22.00;98.10
52187;DHT22;38161;53.020;6.598;2022-08-06T14:00:12;22.00;97.80
52187;DHT22;38161;53.020;6.598;2022-08-06T14:02:38;21.90;97.10
52187;DHT22;38161;53.020;6.598;2022-08-06T14:05:04;21.80;96.90
52187;DHT22;38161;53.020;6.598;2022-08-06T14:07:30;21.70;96.90
52187;DHT22;38161;53.020;6.598;2022-08-06T14:09:56;21.60;97.30
52187;DHT22;38161;53.020;6.598;2022-08-06T14:12:22;21.50;96.90
52187;DHT22;38161;53.020;6.598;2022-08-06T14:14:47;21.50;98.10
52187;DHT22;38161;53.020;6.598;2022-08-06T14:17:14;21.40;97.90
52187;DHT22;38161;53.020;6.598;2022-08-06T14:19:39;21.30;97.00
52187;DHT22;38161;53.020;6.598;2022-08-06T14:22:05;21.30;98.40
52187;DHT22;38161;53.020;6.598;2022-08-06T14:24:33;21.20;98.30
52187;DHT22;38161;53.020;6.598;2022-08-06T14:26:59;21.20;98.40
52187;DHT22;38161;53.020;6.598;2022-08-06T14:29:25;21.20;98.70
52187;DHT22;38161;53.020;6.598;2022-08-06T14:31:51;21.20;98.50
52187;DHT22;38161;53.020;6.598;2022-08-06T14:34:16;21.30;99.00
52187;DHT22;38161;53.020;6.598;2022-08-06T14:36:42;21.40;99.20
52187;DHT22;38161;53.020;6.598;2022-08-06T14:39:08;20.80;98.40
52187;DHT22;38161;53.020;6.598;2022-08-06T14:41:38;21.30;98.70
52187;DHT22;38161;53.020;6.598;2022-08-06T14:44:22;21.30;98.60
52187;DHT22;38161;53.020;6.598;2022-08-06T14:47:06;21.20;99.00
52187;DHT22;38161;53.020;6.598;2022-08-06T14:49:34;21.20;99.00
52187;DHT22;38161;53.020;6.598;2022-08-06T14:52:00;21.20;98.70
52187;DHT22;38161;53.020;6.598;2022-08-06T14:54:26;21.20;98.70
52187;DHT22;38161;53.020;6.598;2022-08-06T14:56:51;21.20;98.80
52187;DHT22;38161;53.020;6.598;2022-08-06T14:59:20;21.20;99.00
52187;DHT22;38161;53.020;6.598;2022-08-06T15:01:47;21.10;98.80
52187;DHT22;38161;53.020;6.598;2022-08-06T15:04:12;21.10;99.30
52187;DHT22;38161;53.020;6.598;2022-08-06T15:06:38;21.00;99.10
52187;DHT22;38161;53.020;6.598;2022-08-06T15:09:04;21.00;99.80
52187;DHT22;38161;53.020;6.598;2022-08-06T15:11:30;21.00;99.90
52187;DHT22;38161;53.020;6.598;2022-08-06T15:13:56;21.00;99.80
52187;DHT22;38161;53.020;6.598;2022-08-06T15:16:22;20.90;99.80
52187;DHT22;38161;53.020;6.598;2022-08-06T15:18:47;20.90;99.60
52187;DHT22;38161;53.020;6.598;2022-08-06T15:21:13;21.00;99.90
52187;DHT22;38161;53.020;6.598;2022-08-06T15:23:39;21.00;99.90
52187;DHT22;38161;53.020;6.598;2022-08-06T15:26:05;21.10;99.90
52187;DHT22;38161;53.020;6.598;2022-08-06T15:28:31;21.10;99.90
52187;DHT22;38161;53.020;6.598;2022-08-06T15:30:57;21.10;99.80
52187;DHT22;38161;53.020;6.598;2022-08-06T15:33:25;21.10;99.70
52187;DHT22;38161;53.020;6.598;2022-08-06T15:35:51;21.00;99.90
52187;DHT22;38161;53.020;6.598;2022-08-06T15:38:17;21.00;99.90
52187;DHT22;38161;53.020;6.598;2022-08-06T15:40:43;21.00;99.90
52187;DHT22;38161;53.020;6.598;2022-08-06T15:43:08;21.00;99.90
52187;DHT22;38161;53.020;6.598;2022-08-06T15:45:35;21.00;99.90
52187;DHT22;38161;53.020;6.598;2022-08-06T15:48:01;21.10;99.90
52187;DHT22;38161;53.020;6.598;2022-08-06T15:50:26;21.10;99.60
52187;DHT22;38161;53.020;6.598;2022-08-06T15:52:52;21.10;99.70
52187;DHT22;38161;53.020;6.598;2022-08-06T15:55:18;21.00;99.90
52187;DHT22;38161;53.020;6.598;2022-08-06T15:57:45;21.00;99.90
52187;DHT22;38161;53.020;6.598;2022-08-06T16:00:11;20.90;99.90
52187;DHT22;38161;53.020;6.598;2022-08-06T16:02:37;20.90;99.90
52187;DHT22;38161;53.020;6.598;2022-08-06T16:05:03;20.90;99.90
52187;DHT22;38161;53.020;6.598;2022-08-06T16:07:29;20.90;99.90
52187;DHT22;38161;53.020;6.598;2022-08-06T16:09:55;20.80;99.90
52187;DHT22;38161;53.020;6.598;2022-08-06T16:12:21;20.80;99.90
52187;DHT22;38161;53.020;6.598;2022-08-06T16:14:47;20.80;99.90
52187;DHT22;38161;53.020;6.598;2022-08-06T16:17:13;20.70;99.90
52187;DHT22;38161;53.020;6.598;2022-08-06T16:19:39;20.70;99.90
52187;DHT22;38161;53.020;6.598;2022-08-06T16:22:05;20.70;99.90
52187;DHT22;38161;53.020;6.598;2022-08-06T16:24:30;20.70;99.90
52187;DHT22;38161;53.020;6.598;2022-08-06T16:26:56;20.70;99.90
52187;DHT22;38161;53.020;6.598;2022-08-06T16:29:22;20.70;99.90
52187;DHT22;38161;53.020;6.598;2022-08-06T16:31:49;20.60;99.90
52187;DHT22;38161;53.020;6.598;2022-08-06T16:34:16;20.60;99.90
52187;DHT22;38161;53.020;6.598;2022-08-06T16:36:42;20.60;99.90
52187;DHT22;38161;53.020;6.598;2022-08-06T16:39:08;20.60;99.90
52187;DHT22;38161;53.020;6.598;2022-08-06T16:41:34;20.60;99.90
52187;DHT22;38161;53.020;6.598;2022-08-06T16:44:00;20.50;99.90
52187;DHT22;38161;53.020;6.598;2022-08-06T16:46:25;20.40;99.90
52187;DHT22;38161;53.020;6.598;2022-08-06T16:48:51;20.40;99.90
52187;DHT22;38161;53.020;6.598;2022-08-06T16:51:17;20.30;99.90
52187;DHT22;38161;53.020;6.598;2022-08-06T16:53:43;20.30;99.90